TimeEDT,TemperatureF,Dew PointF,Humidity,Sea Level PressureIn,VisibilityMPH,Wind Direction,Wind SpeedMPH,Gust SpeedMPH,PrecipitationIn,Events,Conditions,WindDirDegrees,DateUTC
12:56 AM,77.0,71.1,82,30.11,10.0,South,3.5,-,N/A,,Partly Cloudy,190,2013-08-22 04:56:00
1:56 AM,75.0,71.1,87,30.10,10.0,SE,8.1,-,N/A,,Mostly Cloudy,140,2013-08-22 05:56:00
2:56 AM,73.9,70.0,87,30.10,9.0,Calm,Calm,-,N/A,,Mostly Cloudy,0,2013-08-22 06:56:00
3:56 AM,75.0,70.0,84,30.09,9.0,SW,4.6,-,N/A,,Mostly Cloudy,220,2013-08-22 07:56:00
4:56 AM,73.9,70.0,87,30.09,10.0,Calm,Calm,-,N/A,,Mostly Cloudy,0,2013-08-22 08:56:00
5:56 AM,73.9,70.0,87,30.09,9.0,SSW,3.5,-,N/A,,Mostly Cloudy,200,2013-08-22 09:56:00
6:56 AM,73.0,69.1,87,30.11,8.0,Calm,Calm,-,N/A,,Mostly Cloudy,0,2013-08-22 10:56:00
7:56 AM,73.9,70.0,87,30.12,8.0,SSW,5.8,-,N/A,,Mostly Cloudy,210,2013-08-22 11:56:00
8:56 AM,75.9,71.1,85,30.12,7.0,SW,3.5,-,N/A,,Mostly Cloudy,220,2013-08-22 12:56:00
9:56 AM,81.0,72.0,74,30.10,8.0,WSW,4.6,-,N/A,,Scattered Clouds,250,2013-08-22 13:56:00
10:56 AM,84.0,71.1,65,30.10,10.0,WSW,6.9,-,N/A,,Scattered Clouds,250,2013-08-22 14:56:00
11:56 AM,84.0,69.1,61,30.11,10.0,WNW,9.2,-,N/A,,Mostly Cloudy,290,2013-08-22 15:56:00
12:56 PM,86.0,69.1,57,30.10,10.0,WNW,8.1,-,N/A,,Mostly Cloudy,300,2013-08-22 16:56:00
1:56 PM,88.0,68.0,51,30.08,10.0,NW,10.4,-,N/A,,Mostly Cloudy,310,2013-08-22 17:56:00
2:56 PM,88.0,66.9,49,30.06,10.0,West,8.1,-,N/A,,Scattered Clouds,280,2013-08-22 18:56:00
3:56 PM,89.1,66.9,48,30.04,10.0,WNW,5.8,-,N/A,,Scattered Clouds,290,2013-08-22 19:56:00
4:56 PM,90.0,64.9,43,30.02,10.0,West,8.1,18.4,N/A,,Scattered Clouds,260,2013-08-22 20:56:00
5:56 PM,89.1,64.9,45,30.02,10.0,WNW,9.2,-,N/A,,Scattered Clouds,290,2013-08-22 21:56:00
6:56 PM,86.0,66.9,53,30.01,9.0,NNE,10.4,-,N/A,,Scattered Clouds,20,2013-08-22 22:56:00
7:56 PM,82.0,66.9,60,30.03,9.0,North,13.8,-,N/A,,Scattered Clouds,360,2013-08-22 23:56:00
8:56 PM,80.1,68.0,67,30.02,9.0,NW,3.5,-,0.00,Rain,Light Rain,320,2013-08-23 00:56:00
9:56 PM,80.1,68.0,67,30.03,9.0,NE,4.6,-,0.00,,Mostly Cloudy,40,2013-08-23 01:56:00
10:56 PM,79.0,68.0,69,30.03,9.0,Calm,Calm,-,N/A,,Scattered Clouds,0,2013-08-23 02:56:00
11:56 PM,77.0,69.1,76,30.03,8.0,WSW,4.6,-,N/A,,Scattered Clouds,250,2013-08-23 03:56:00